sensor_id;sensor_type;location;lat;lon;timestamp;P1;durP1;ratioP1;P2;durP2;ratioP2
25015;SDS011;13029;46.286;7.488;2023-02-28T00:01:27;9.68;;;7.40;;
25015;SDS011;13029;46.286;7.488;2023-02-28T00:03:52;10.30;;;7.80;;
25015;SDS011;13029;46.286;7.488;2023-02-28T00:06:17;9.68;;;6.63;;
25015;SDS011;13029;46.286;7.488;2023-02-28T00:08:43;10.65;;;7.60;;
25015;SDS011;13029;46.286;7.488;2023-02-28T00:11:10;9.40;;;6.60;;
25015;SDS011;13029;46.286;7.488;2023-02-28T00:13:38;9.40;;;6.63;;
25015;SDS011;13029;46.286;7.488;2023-02-28T00:16:08;9.38;;;7.70;;
25015;SDS011;13029;46.286;7.488;2023-02-28T00:18:36;8.40;;;7.10;;
25015;SDS011;13029;46.286;7.488;2023-02-28T00:21:02;11.13;;;7.63;;
25015;SDS011;13029;46.286;7.488;2023-02-28T00:23:28;10.73;;;7.50;;
25015;SDS011;13029;46.286;7.488;2023-02-28T00:25:53;9.13;;;7.20;;
25015;SDS011;13029;46.286;7.488;2023-02-28T00:28:19;8.18;;;6.82;;
25015;SDS011;13029;46.286;7.488;2023-02-28T00:30:44;8.88;;;6.88;;
25015;SDS011;13029;46.286;7.488;2023-02-28T00:33:09;25.75;;;7.38;;
25015;SDS011;13029;46.286;7.488;2023-02-28T00:35:35;11.80;;;7.38;;
25015;SDS011;13029;46.286;7.488;2023-02-28T00:38:00;10.45;;;7.65;;
25015;SDS011;13029;46.286;7.488;2023-02-28T00:40:26;9.98;;;7.65;;
25015;SDS011;13029;46.286;7.488;2023-02-28T00:42:51;14.07;;;7.63;;
25015;SDS011;13029;46.286;7.488;2023-02-28T00:45:17;10.38;;;7.57;;
25015;SDS011;13029;46.286;7.488;2023-02-28T00:47:42;10.65;;;7.90;;
25015;SDS011;13029;46.286;7.488;2023-02-28T00:50:07;14.30;;;8.25;;
25015;SDS011;13029;46.286;7.488;2023-02-28T00:52:33;11.32;;;8.50;;
25015;SDS011;13029;46.286;7.488;2023-02-28T00:54:59;11.18;;;8.05;;
25015;SDS011;13029;46.286;7.488;2023-02-28T00:57:24;9.70;;;7.15;;
25015;SDS011;13029;46.286;7.488;2023-02-28T00:59:49;9.20;;;7.40;;
25015;SDS011;13029;46.286;7.488;2023-02-28T01:02:15;9.15;;;7.35;;
25015;SDS011;13029;46.286;7.488;2023-02-28T01:04:40;9.52;;;6.93;;
25015;SDS011;13029;46.286;7.488;2023-02-28T01:07:05;11.68;;;6.90;;
25015;SDS011;13029;46.286;7.488;2023-02-28T01:09:31;12.05;;;7.85;;
25015;SDS011;13029;46.286;7.488;2023-02-28T01:11:56;12.15;;;7.88;;
25015;SDS011;13029;46.286;7.488;2023-02-28T01:14:21;10.07;;;7.57;;
25015;SDS011;13029;46.286;7.488;2023-02-28T01:16:47;11.18;;;7.80;;
25015;SDS011;13029;46.286;7.488;2023-02-28T01:19:12;11.82;;;7.72;;
25015;SDS011;13029;46.286;7.488;2023-02-28T01:21:38;9.85;;;7.63;;
25015;SDS011;13029;46.286;7.488;2023-02-28T01:24:03;10.95;;;7.22;;
25015;SDS011;13029;46.286;7.488;2023-02-28T01:26:29;9.57;;;7.68;;
25015;SDS011;13029;46.286;7.488;2023-02-28T01:28:54;9.38;;;7.35;;
25015;SDS011;13029;46.286;7.488;2023-02-28T01:31:20;11.18;;;7.80;;
25015;SDS011;13029;46.286;7.488;2023-02-28T01:33:46;11.50;;;7.35;;
25015;SDS011;13029;46.286;7.488;2023-02-28T01:36:16;11.75;;;7.53;;
25015;SDS011;13029;46.286;7.488;2023-02-28T01:38:43;8.90;;;7.07;;
25015;SDS011;13029;46.286;7.488;2023-02-28T01:41:11;11.13;;;7.60;;
25015;SDS011;13029;46.286;7.488;2023-02-28T01:46:12;12.03;;;9.00;;
25015;SDS011;13029;46.286;7.488;2023-02-28T01:48:38;9.05;;;7.50;;
25015;SDS011;13029;46.286;7.488;2023-02-28T01:51:07;9.52;;;7.75;;
25015;SDS011;13029;46.286;7.488;2023-02-28T01:53:41;10.55;;;7.72;;
25015;SDS011;13029;46.286;7.488;2023-02-28T01:56:09;9.48;;;6.93;;
25015;SDS011;13029;46.286;7.488;2023-02-28T01:58:37;9.55;;;7.00;;
25015;SDS011;13029;46.286;7.488;2023-02-28T02:01:02;9.07;;;6.90;;
25015;SDS011;13029;46.286;7.488;2023-02-28T02:03:29;8.30;;;6.40;;
25015;SDS011;13029;46.286;7.488;2023-02-28T02:05:55;8.45;;;6.35;;
25015;SDS011;13029;46.286;7.488;2023-02-28T02:08:24;9.98;;;7.88;;
25015;SDS011;13029;46.286;7.488;2023-02-28T02:10:57;9.75;;;7.30;;
25015;SDS011;13029;46.286;7.488;2023-02-28T02:18:53;7.80;;;6.45;;
25015;SDS011;13029;46.286;7.488;2023-02-28T02:21:28;10.32;;;6.10;;
25015;SDS011;13029;46.286;7.488;2023-02-28T02:36:33;8.52;;;6.55;;
25015;SDS011;13029;46.286;7.488;2023-02-28T02:41:46;14.32;;;6.70;;
25015;SDS011;13029;46.286;7.488;2023-02-28T02:44:20;8.55;;;6.32;;
25015;SDS011;13029;46.286;7.488;2023-02-28T02:46:47;10.30;;;7.03;;
25015;SDS011;13029;46.286;7.488;2023-02-28T02:49:19;11.27;;;7.57;;
25015;SDS011;13029;46.286;7.488;2023-02-28T02:51:47;8.73;;;7.13;;
25015;SDS011;13029;46.286;7.488;2023-02-28T02:54:55;9.93;;;7.05;;
25015;SDS011;13029;46.286;7.488;2023-02-28T02:57:06;9.65;;;7.10;;
25015;SDS011;13029;46.286;7.488;2023-02-28T02:59:34;10.68;;;6.95;;
25015;SDS011;13029;46.286;7.488;2023-02-28T03:02:02;7.85;;;6.38;;
25015;SDS011;13029;46.286;7.488;2023-02-28T03:04:31;9.00;;;7.55;;
25015;SDS011;13029;46.286;7.488;2023-02-28T03:06:59;11.40;;;7.10;;
25015;SDS011;13029;46.286;7.488;2023-02-28T03:09:25;10.15;;;7.78;;
25015;SDS011;13029;46.286;7.488;2023-02-28T03:11:52;9.77;;;7.97;;
25015;SDS011;13029;46.286;7.488;2023-02-28T03:22:19;10.75;;;8.50;;
25015;SDS011;13029;46.286;7.488;2023-02-28T03:27:42;11.52;;;8.85;;
25015;SDS011;13029;46.286;7.488;2023-02-28T03:33:01;11.90;;;8.77;;
25015;SDS011;13029;46.286;7.488;2023-02-28T03:35:54;10.90;;;8.73;;
25015;SDS011;13029;46.286;7.488;2023-02-28T03:38:38;10.27;;;8.52;;
25015;SDS011;13029;46.286;7.488;2023-02-28T03:41:08;12.60;;;8.60;;
25015;SDS011;13029;46.286;7.488;2023-02-28T03:43:38;11.82;;;8.93;;
25015;SDS011;13029;46.286;7.488;2023-02-28T03:46:07;10.52;;;8.15;;
25015;SDS011;13029;46.286;7.488;2023-02-28T03:48:36;11.07;;;9.18;;
25015;SDS011;13029;46.286;7.488;2023-02-28T03:51:05;10.48;;;8.32;;
25015;SDS011;13029;46.286;7.488;2023-02-28T03:53:53;11.85;;;8.80;;
25015;SDS011;13029;46.286;7.488;2023-02-28T03:58:59;10.60;;;9.18;;
25015;SDS011;13029;46.286;7.488;2023-02-28T04:01:32;10.50;;;8.73;;
25015;SDS011;13029;46.286;7.488;2023-02-28T04:04:03;11.48;;;9.15;;
25015;SDS011;13029;46.286;7.488;2023-02-28T04:06:30;13.40;;;8.50;;
25015;SDS011;13029;46.286;7.488;2023-02-28T04:08:57;10.93;;;8.48;;
25015;SDS011;13029;46.286;7.488;2023-02-28T04:11:33;9.23;;;8.00;;
25015;SDS011;13029;46.286;7.488;2023-02-28T04:14:00;9.23;;;7.68;;
25015;SDS011;13029;46.286;7.488;2023-02-28T04:16:27;13.13;;;9.25;;
25015;SDS011;13029;46.286;7.488;2023-02-28T04:18:53;13.57;;;9.45;;
25015;SDS011;13029;46.286;7.488;2023-02-28T04:21:19;13.32;;;9.65;;
25015;SDS011;13029;46.286;7.488;2023-02-28T04:23:47;14.98;;;9.02;;
25015;SDS011;13029;46.286;7.488;2023-02-28T04:26:12;15.02;;;9.38;;
25015;SDS011;13029;46.286;7.488;2023-02-28T04:28:38;11.65;;;8.85;;
25015;SDS011;13029;46.286;7.488;2023-02-28T04:31:03;10.77;;;8.82;;
25015;SDS011;13029;46.286;7.488;2023-02-28T04:33:29;13.25;;;9.38;;
25015;SDS011;13029;46.286;7.488;2023-02-28T04:36:06;13.05;;;9.23;;
25015;SDS011;13029;46.286;7.488;2023-02-28T04:38:33;9.73;;;8.00;;
25015;SDS011;13029;46.286;7.488;2023-02-28T04:41:00;12.10;;;9.75;;
25015;SDS011;13029;46.286;7.488;2023-02-28T04:43:26;10.15;;;8.75;;
25015;SDS011;13029;46.286;7.488;2023-02-28T04:45:52;10.65;;;8.43;;
25015;SDS011;13029;46.286;7.488;2023-02-28T04:48:17;11.48;;;8.32;;
25015;SDS011;13029;46.286;7.488;2023-02-28T04:50:43;10.52;;;8.25;;
25015;SDS011;13029;46.286;7.488;2023-02-28T04:53:08;10.95;;;8.35;;
25015;SDS011;13029;46.286;7.488;2023-02-28T04:55:33;13.45;;;8.95;;
25015;SDS011;13029;46.286;7.488;2023-02-28T04:57:59;12.27;;;9.05;;
25015;SDS011;13029;46.286;7.488;2023-02-28T05:00:24;13.57;;;9.40;;
25015;SDS011;13029;46.286;7.488;2023-02-28T05:02:50;10.65;;;8.80;;
25015;SDS011;13029;46.286;7.488;2023-02-28T05:05:15;10.70;;;8.73;;
25015;SDS011;13029;46.286;7.488;2023-02-28T05:07:43;12.98;;;8.98;;
25015;SDS011;13029;46.286;7.488;2023-02-28T05:10:09;11.38;;;8.05;;
25015;SDS011;13029;46.286;7.488;2023-02-28T05:12:35;10.07;;;8.60;;
25015;SDS011;13029;46.286;7.488;2023-02-28T05:15:00;13.88;;;8.55;;
25015;SDS011;13029;46.286;7.488;2023-02-28T05:17:27;9.65;;;8.20;;
25015;SDS011;13029;46.286;7.488;2023-02-28T05:19:52;10.02;;;7.85;;
25015;SDS011;13029;46.286;7.488;2023-02-28T05:22:17;11.05;;;8.10;;
25015;SDS011;13029;46.286;7.488;2023-02-28T05:24:43;10.98;;;8.15;;
25015;SDS011;13029;46.286;7.488;2023-02-28T05:27:08;8.70;;;7.70;;
25015;SDS011;13029;46.286;7.488;2023-02-28T05:29:34;9.88;;;8.38;;
25015;SDS011;13029;46.286;7.488;2023-02-28T05:32:06;12.18;;;7.85;;
25015;SDS011;13029;46.286;7.488;2023-02-28T05:34:33;11.52;;;7.47;;
25015;SDS011;13029;46.286;7.488;2023-02-28T05:36:58;10.35;;;7.40;;
25015;SDS011;13029;46.286;7.488;2023-02-28T05:39:24;10.90;;;8.45;;
25015;SDS011;13029;46.286;7.488;2023-02-28T05:41:49;10.52;;;7.93;;
25015;SDS011;13029;46.286;7.488;2023-02-28T05:44:15;10.73;;;7.85;;
25015;SDS011;13029;46.286;7.488;2023-02-28T05:46:40;11.18;;;8.02;;
25015;SDS011;13029;46.286;7.488;2023-02-28T05:49:05;9.98;;;7.80;;
25015;SDS011;13029;46.286;7.488;2023-02-28T05:51:31;12.70;;;7.78;;
25015;SDS011;13029;46.286;7.488;2023-02-28T05:54:00;8.77;;;7.13;;
25015;SDS011;13029;46.286;7.488;2023-02-28T05:56:26;7.80;;;7.00;;
25015;SDS011;13029;46.286;7.488;2023-02-28T05:58:51;9.02;;;7.45;;
25015;SDS011;13029;46.286;7.488;2023-02-28T06:01:23;13.88;;;8.00;;
25015;SDS011;13029;46.286;7.488;2023-02-28T06:03:51;11.02;;;8.32;;
25015;SDS011;13029;46.286;7.488;2023-02-28T06:06:17;10.07;;;7.78;;
25015;SDS011;13029;46.286;7.488;2023-02-28T06:08:42;10.98;;;8.38;;
25015;SDS011;13029;46.286;7.488;2023-02-28T06:11:09;9.43;;;7.75;;
25015;SDS011;13029;46.286;7.488;2023-02-28T06:13:34;10.05;;;7.93;;
25015;SDS011;13029;46.286;7.488;2023-02-28T06:16:01;9.35;;;7.78;;
25015;SDS011;13029;46.286;7.488;2023-02-28T06:18:26;11.40;;;8.05;;
25015;SDS011;13029;46.286;7.488;2023-02-28T06:20:52;12.63;;;8.02;;
25015;SDS011;13029;46.286;7.488;2023-02-28T06:23:21;11.10;;;7.35;;
25015;SDS011;13029;46.286;7.488;2023-02-28T06:25:46;10.57;;;8.18;;
25015;SDS011;13029;46.286;7.488;2023-02-28T06:28:13;10.75;;;7.90;;
25015;SDS011;13029;46.286;7.488;2023-02-28T06:30:38;11.35;;;7.63;;
25015;SDS011;13029;46.286;7.488;2023-02-28T06:33:04;9.10;;;6.97;;
25015;SDS011;13029;46.286;7.488;2023-02-28T06:35:29;10.15;;;7.32;;
25015;SDS011;13029;46.286;7.488;2023-02-28T06:37:54;7.47;;;6.18;;
25015;SDS011;13029;46.286;7.488;2023-02-28T06:40:20;5.97;;;5.25;;
25015;SDS011;13029;46.286;7.488;2023-02-28T06:42:45;6.10;;;5.03;;
25015;SDS011;13029;46.286;7.488;2023-02-28T06:45:11;5.88;;;5.00;;
25015;SDS011;13029;46.286;7.488;2023-02-28T06:47:40;5.45;;;4.20;;
25015;SDS011;13029;46.286;7.488;2023-02-28T06:50:06;6.25;;;5.00;;
25015;SDS011;13029;46.286;7.488;2023-02-28T06:52:35;5.85;;;4.43;;
25015;SDS011;13029;46.286;7.488;2023-02-28T06:55:04;6.78;;;4.63;;
25015;SDS011;13029;46.286;7.488;2023-02-28T06:57:30;11.90;;;5.22;;
25015;SDS011;13029;46.286;7.488;2023-02-28T06:59:59;12.73;;;5.30;;
25015;SDS011;13029;46.286;7.488;2023-02-28T07:02:26;9.40;;;6.60;;
25015;SDS011;13029;46.286;7.488;2023-02-28T07:04:52;11.80;;;6.72;;
25015;SDS011;13029;46.286;7.488;2023-02-28T07:07:17;8.82;;;5.68;;
25015;SDS011;13029;46.286;7.488;2023-02-28T07:09:42;8.98;;;5.65;;
25015;SDS011;13029;46.286;7.488;2023-02-28T07:12:07;7.78;;;5.30;;
25015;SDS011;13029;46.286;7.488;2023-02-28T07:14:33;8.98;;;6.40;;
25015;SDS011;13029;46.286;7.488;2023-02-28T07:16:58;11.05;;;6.28;;
25015;SDS011;13029;46.286;7.488;2023-02-28T07:19:23;8.75;;;7.38;;
25015;SDS011;13029;46.286;7.488;2023-02-28T07:21:49;14.15;;;10.05;;
25015;SDS011;13029;46.286;7.488;2023-02-28T07:24:14;13.52;;;10.52;;
25015;SDS011;13029;46.286;7.488;2023-02-28T07:26:41;12.80;;;11.30;;
25015;SDS011;13029;46.286;7.488;2023-02-28T07:29:06;12.70;;;10.25;;
25015;SDS011;13029;46.286;7.488;2023-02-28T07:31:31;13.80;;;11.07;;
25015;SDS011;13029;46.286;7.488;2023-02-28T07:33:57;12.60;;;10.73;;
25015;SDS011;13029;46.286;7.488;2023-02-28T07:36:23;14.20;;;11.30;;
25015;SDS011;13029;46.286;7.488;2023-02-28T07:38:48;16.55;;;11.68;;
25015;SDS011;13029;46.286;7.488;2023-02-28T07:41:18;18.25;;;11.95;;
25015;SDS011;13029;46.286;7.488;2023-02-28T07:43:45;14.73;;;11.68;;
25015;SDS011;13029;46.286;7.488;2023-02-28T07:46:11;16.17;;;10.52;;
25015;SDS011;13029;46.286;7.488;2023-02-28T07:48:40;14.52;;;11.63;;
25015;SDS011;13029;46.286;7.488;2023-02-28T07:51:06;16.60;;;11.85;;
25015;SDS011;13029;46.286;7.488;2023-02-28T07:53:31;17.35;;;10.57;;
25015;SDS011;13029;46.286;7.488;2023-02-28T07:55:57;12.65;;;10.52;;
25015;SDS011;13029;46.286;7.488;2023-02-28T07:58:23;13.88;;;11.02;;
25015;SDS011;13029;46.286;7.488;2023-02-28T08:00:49;15.60;;;11.77;;
25015;SDS011;13029;46.286;7.488;2023-02-28T08:03:17;14.30;;;10.73;;
25015;SDS011;13029;46.286;7.488;2023-02-28T08:05:43;17.45;;;10.95;;
25015;SDS011;13029;46.286;7.488;2023-02-28T08:08:08;21.33;;;11.70;;
25015;SDS011;13029;46.286;7.488;2023-02-28T08:10:34;15.13;;;10.88;;
25015;SDS011;13029;46.286;7.488;2023-02-28T08:12:59;8.95;;;7.75;;
25015;SDS011;13029;46.286;7.488;2023-02-28T08:15:25;10.00;;;7.32;;
25015;SDS011;13029;46.286;7.488;2023-02-28T08:17:50;8.02;;;6.18;;
25015;SDS011;13029;46.286;7.488;2023-02-28T08:20:15;14.25;;;9.95;;
25015;SDS011;13029;46.286;7.488;2023-02-28T08:22:41;14.10;;;9.00;;
25015;SDS011;13029;46.286;7.488;2023-02-28T08:25:07;7.68;;;6.13;;
25015;SDS011;13029;46.286;7.488;2023-02-28T08:27:33;7.13;;;5.18;;
25015;SDS011;13029;46.286;7.488;2023-02-28T08:29:58;7.03;;;6.35;;
25015;SDS011;13029;46.286;7.488;2023-02-28T08:32:23;7.85;;;6.57;;
25015;SDS011;13029;46.286;7.488;2023-02-28T08:34:49;11.57;;;9.40;;
25015;SDS011;13029;46.286;7.488;2023-02-28T08:37:14;15.25;;;10.07;;
25015;SDS011;13029;46.286;7.488;2023-02-28T08:39:40;9.43;;;7.43;;
25015;SDS011;13029;46.286;7.488;2023-02-28T08:42:05;12.70;;;7.97;;
25015;SDS011;13029;46.286;7.488;2023-02-28T08:44:30;11.63;;;6.28;;
25015;SDS011;13029;46.286;7.488;2023-02-28T08:46:56;8.95;;;6.40;;
25015;SDS011;13029;46.286;7.488;2023-02-28T08:49:21;14.38;;;8.80;;
25015;SDS011;13029;46.286;7.488;2023-02-28T08:51:46;12.77;;;7.63;;
25015;SDS011;13029;46.286;7.488;2023-02-28T08:54:11;13.20;;;6.78;;
25015;SDS011;13029;46.286;7.488;2023-02-28T08:56:37;17.95;;;9.10;;
25015;SDS011;13029;46.286;7.488;2023-02-28T08:59:02;42.70;;;11.02;;
25015;SDS011;13029;46.286;7.488;2023-02-28T09:01:28;39.08;;;11.70;;
25015;SDS011;13029;46.286;7.488;2023-02-28T09:03:54;14.68;;;7.47;;
25015;SDS011;13029;46.286;7.488;2023-02-28T09:06:21;11.57;;;8.88;;
25015;SDS011;13029;46.286;7.488;2023-02-28T09:08:48;14.02;;;10.80;;
25015;SDS011;13029;46.286;7.488;2023-02-28T09:11:13;20.55;;;9.25;;
25015;SDS011;13029;46.286;7.488;2023-02-28T09:13:39;14.73;;;10.00;;
25015;SDS011;13029;46.286;7.488;2023-02-28T09:16:06;14.23;;;9.77;;
25015;SDS011;13029;46.286;7.488;2023-02-28T09:18:33;12.15;;;8.88;;
25015;SDS011;13029;46.286;7.488;2023-02-28T09:20:59;17.77;;;11.10;;
25015;SDS011;13029;46.286;7.488;2023-02-28T09:23:28;15.02;;;10.40;;
25015;SDS011;13029;46.286;7.488;2023-02-28T09:25:54;20.30;;;10.63;;
25015;SDS011;13029;46.286;7.488;2023-02-28T09:28:20;13.52;;;9.85;;
25015;SDS011;13029;46.286;7.488;2023-02-28T09:30:47;13.85;;;8.85;;
25015;SDS011;13029;46.286;7.488;2023-02-28T09:33:14;15.15;;;9.90;;
25015;SDS011;13029;46.286;7.488;2023-02-28T09:35:40;13.65;;;9.73;;
25015;SDS011;13029;46.286;7.488;2023-02-28T09:38:05;12.23;;;9.63;;
25015;SDS011;13029;46.286;7.488;2023-02-28T09:40:34;12.98;;;10.52;;
25015;SDS011;13029;46.286;7.488;2023-02-28T09:43:00;10.00;;;8.57;;
25015;SDS011;13029;46.286;7.488;2023-02-28T09:45:30;9.82;;;8.35;;
25015;SDS011;13029;46.286;7.488;2023-02-28T09:48:11;12.50;;;9.40;;
25015;SDS011;13029;46.286;7.488;2023-02-28T09:50:41;11.75;;;7.80;;
25015;SDS011;13029;46.286;7.488;2023-02-28T09:53:22;8.98;;;8.00;;
25015;SDS011;13029;46.286;7.488;2023-02-28T09:55:52;10.70;;;9.30;;
25015;SDS011;13029;46.286;7.488;2023-02-28T09:58:29;12.57;;;9.70;;
25015;SDS011;13029;46.286;7.488;2023-02-28T10:01:31;14.63;;;10.17;;
25015;SDS011;13029;46.286;7.488;2023-02-28T10:04:16;13.57;;;10.15;;
25015;SDS011;13029;46.286;7.488;2023-02-28T10:06:44;14.88;;;9.82;;
25015;SDS011;13029;46.286;7.488;2023-02-28T10:09:22;13.10;;;10.18;;
25015;SDS011;13029;46.286;7.488;2023-02-28T10:11:50;11.60;;;9.10;;
25015;SDS011;13029;46.286;7.488;2023-02-28T10:14:18;11.95;;;9.50;;
25015;SDS011;13029;46.286;7.488;2023-02-28T10:16:46;13.25;;;8.70;;
25015;SDS011;13029;46.286;7.488;2023-02-28T10:19:28;11.07;;;9.73;;
25015;SDS011;13029;46.286;7.488;2023-02-28T10:27:01;12.23;;;10.50;;
25015;SDS011;13029;46.286;7.488;2023-02-28T10:29:34;11.02;;;9.07;;
25015;SDS011;13029;46.286;7.488;2023-02-28T10:32:01;11.15;;;9.38;;
25015;SDS011;13029;46.286;7.488;2023-02-28T10:34:27;11.60;;;9.68;;
25015;SDS011;13029;46.286;7.488;2023-02-28T10:36:53;10.63;;;8.85;;
25015;SDS011;13029;46.286;7.488;2023-02-28T10:39:41;11.73;;;9.63;;
25015;SDS011;13029;46.286;7.488;2023-02-28T10:42:18;9.43;;;8.50;;
25015;SDS011;13029;46.286;7.488;2023-02-28T10:44:45;10.82;;;9.02;;
25015;SDS011;13029;46.286;7.488;2023-02-28T10:47:14;9.40;;;8.35;;
25015;SDS011;13029;46.286;7.488;2023-02-28T10:49:46;11.32;;;8.05;;
25015;SDS011;13029;46.286;7.488;2023-02-28T10:52:12;14.68;;;8.60;;
25015;SDS011;13029;46.286;7.488;2023-02-28T10:54:38;8.77;;;7.95;;
25015;SDS011;13029;46.286;7.488;2023-02-28T10:57:17;10.60;;;7.97;;
25015;SDS011;13029;46.286;7.488;2023-02-28T11:04:55;14.27;;;8.65;;
25015;SDS011;13029;46.286;7.488;2023-02-28T11:07:21;10.05;;;8.15;;
25015;SDS011;13029;46.286;7.488;2023-02-28T11:09:48;10.95;;;9.32;;
25015;SDS011;13029;46.286;7.488;2023-02-28T11:12:29;11.30;;;8.15;;
25015;SDS011;13029;46.286;7.488;2023-02-28T11:14:59;10.10;;;6.78;;
25015;SDS011;13029;46.286;7.488;2023-02-28T11:17:28;9.68;;;8.13;;
25015;SDS011;13029;46.286;7.488;2023-02-28T11:20:05;14.77;;;7.80;;
25015;SDS011;13029;46.286;7.488;2023-02-28T11:22:35;10.38;;;7.00;;
25015;SDS011;13029;46.286;7.488;2023-02-28T11:25:06;10.98;;;8.45;;
25015;SDS011;13029;46.286;7.488;2023-02-28T11:29:58;10.80;;;8.57;;
25015;SDS011;13029;46.286;7.488;2023-02-28T11:32:25;8.50;;;7.65;;
25015;SDS011;13029;46.286;7.488;2023-02-28T11:39:59;7.53;;;6.83;;
25015;SDS011;13029;46.286;7.488;2023-02-28T11:50:31;9.07;;;7.47;;
25015;SDS011;13029;46.286;7.488;2023-02-28T11:55:36;8.07;;;7.28;;
25015;SDS011;13029;46.286;7.488;2023-02-28T12:00:57;9.82;;;7.43;;
25015;SDS011;13029;46.286;7.488;2023-02-28T12:06:08;7.75;;;6.95;;
25015;SDS011;13029;46.286;7.488;2023-02-28T12:11:19;8.45;;;6.22;;
25015;SDS011;13029;46.286;7.488;2023-02-28T12:14:18;8.27;;;6.80;;
25015;SDS011;13029;46.286;7.488;2023-02-28T12:16:45;10.07;;;7.35;;
25015;SDS011;13029;46.286;7.488;2023-02-28T12:19:17;11.02;;;7.05;;
25015;SDS011;13029;46.286;7.488;2023-02-28T12:24:32;8.00;;;6.63;;
25015;SDS011;13029;46.286;7.488;2023-02-28T12:27:15;10.60;;;7.07;;
25015;SDS011;13029;46.286;7.488;2023-02-28T12:35:01;13.05;;;6.50;;
25015;SDS011;13029;46.286;7.488;2023-02-28T12:40:41;7.28;;;6.60;;
25015;SDS011;13029;46.286;7.488;2023-02-28T12:43:09;9.07;;;6.80;;
25015;SDS011;13029;46.286;7.488;2023-02-28T12:45:43;14.25;;;6.72;;
25015;SDS011;13029;46.286;7.488;2023-02-28T12:48:14;12.45;;;6.32;;
25015;SDS011;13029;46.286;7.488;2023-02-28T12:50:41;14.63;;;7.32;;
25015;SDS011;13029;46.286;7.488;2023-02-28T12:53:24;16.65;;;7.60;;
25015;SDS011;13029;46.286;7.488;2023-02-28T13:01:04;11.95;;;8.27;;
25015;SDS011;13029;46.286;7.488;2023-02-28T13:07:00;13.85;;;7.55;;
25015;SDS011;13029;46.286;7.488;2023-02-28T13:09:31;6.28;;;5.65;;
25015;SDS011;13029;46.286;7.488;2023-02-28T13:11:57;9.50;;;8.10;;
25015;SDS011;13029;46.286;7.488;2023-02-28T13:16:59;12.77;;;8.07;;
25015;SDS011;13029;46.286;7.488;2023-02-28T13:19:30;12.40;;;7.65;;
25015;SDS011;13029;46.286;7.488;2023-02-28T13:21:57;12.25;;;7.28;;
25015;SDS011;13029;46.286;7.488;2023-02-28T13:24:37;11.95;;;8.07;;
25015;SDS011;13029;46.286;7.488;2023-02-28T13:33:21;9.98;;;7.35;;
25015;SDS011;13029;46.286;7.488;2023-02-28T13:38:41;13.38;;;8.02;;
25015;SDS011;13029;46.286;7.488;2023-02-28T13:49:19;14.82;;;8.93;;
25015;SDS011;13029;46.286;7.488;2023-02-28T13:52:11;11.40;;;8.23;;
25015;SDS011;13029;46.286;7.488;2023-02-28T13:54:49;12.32;;;6.45;;
25015;SDS011;13029;46.286;7.488;2023-02-28T14:00:08;9.00;;;7.85;;
25015;SDS011;13029;46.286;7.488;2023-02-28T14:05:23;14.57;;;8.85;;
25015;SDS011;13029;46.286;7.488;2023-02-28T14:07:57;12.50;;;8.60;;
25015;SDS011;13029;46.286;7.488;2023-02-28T14:10:44;14.52;;;9.35;;
25015;SDS011;13029;46.286;7.488;2023-02-28T14:13:36;13.98;;;9.02;;
25015;SDS011;13029;46.286;7.488;2023-02-28T14:16:10;12.95;;;9.05;;
25015;SDS011;13029;46.286;7.488;2023-02-28T14:18:37;11.25;;;10.05;;
25015;SDS011;13029;46.286;7.488;2023-02-28T14:21:10;11.90;;;9.00;;
25015;SDS011;13029;46.286;7.488;2023-02-28T14:26:58;11.13;;;8.93;;
25015;SDS011;13029;46.286;7.488;2023-02-28T14:29:43;13.95;;;9.57;;
25015;SDS011;13029;46.286;7.488;2023-02-28T14:32:21;10.35;;;8.98;;
25015;SDS011;13029;46.286;7.488;2023-02-28T14:35:15;15.38;;;10.10;;
25015;SDS011;13029;46.286;7.488;2023-02-28T14:37:43;12.35;;;8.07;;
25015;SDS011;13029;46.286;7.488;2023-02-28T14:40:16;12.27;;;9.23;;
25015;SDS011;13029;46.286;7.488;2023-02-28T14:42:48;12.60;;;9.63;;
25015;SDS011;13029;46.286;7.488;2023-02-28T14:45:20;15.10;;;10.15;;
25015;SDS011;13029;46.286;7.488;2023-02-28T14:47:47;11.48;;;9.18;;
25015;SDS011;13029;46.286;7.488;2023-02-28T14:50:18;12.75;;;8.55;;
25015;SDS011;13029;46.286;7.488;2023-02-28T14:52:55;17.40;;;8.90;;
25015;SDS011;13029;46.286;7.488;2023-02-28T14:55:31;15.35;;;10.20;;
25015;SDS011;13029;46.286;7.488;2023-02-28T14:58:02;10.65;;;9.55;;
25015;SDS011;13029;46.286;7.488;2023-02-28T15:00:35;24.90;;;10.40;;
25015;SDS011;13029;46.286;7.488;2023-02-28T15:03:11;12.30;;;8.98;;
25015;SDS011;13029;46.286;7.488;2023-02-28T15:05:47;13.82;;;10.18;;
25015;SDS011;13029;46.286;7.488;2023-02-28T15:08:17;17.38;;;9.68;;
25015;SDS011;13029;46.286;7.488;2023-02-28T15:10:43;20.75;;;10.23;;
25015;SDS011;13029;46.286;7.488;2023-02-28T15:13:36;14.25;;;9.73;;
25015;SDS011;13029;46.286;7.488;2023-02-28T15:16:05;15.00;;;9.68;;
25015;SDS011;13029;46.286;7.488;2023-02-28T15:21:13;11.68;;;9.07;;
25015;SDS011;13029;46.286;7.488;2023-02-28T15:23:41;18.92;;;9.55;;
25015;SDS011;13029;46.286;7.488;2023-02-28T15:26:10;15.82;;;9.52;;
25015;SDS011;13029;46.286;7.488;2023-02-28T15:28:39;12.07;;;9.00;;
25015;SDS011;13029;46.286;7.488;2023-02-28T15:31:16;15.82;;;10.88;;
25015;SDS011;13029;46.286;7.488;2023-02-28T15:33:53;13.85;;;9.98;;
25015;SDS011;13029;46.286;7.488;2023-02-28T15:36:20;15.70;;;9.10;;
25015;SDS011;13029;46.286;7.488;2023-02-28T15:38:50;12.07;;;9.48;;
25015;SDS011;13029;46.286;7.488;2023-02-28T15:41:21;14.05;;;9.68;;
25015;SDS011;13029;46.286;7.488;2023-02-28T15:43:49;12.45;;;10.18;;
25015;SDS011;13029;46.286;7.488;2023-02-28T15:47:01;13.80;;;10.90;;
25015;SDS011;13029;46.286;7.488;2023-02-28T15:49:29;12.07;;;10.00;;
25015;SDS011;13029;46.286;7.488;2023-02-28T15:51:59;20.02;;;10.65;;
25015;SDS011;13029;46.286;7.488;2023-02-28T15:54:29;14.07;;;10.50;;
25015;SDS011;13029;46.286;7.488;2023-02-28T15:56:57;13.60;;;10.43;;
25015;SDS011;13029;46.286;7.488;2023-02-28T15:59:31;15.65;;;11.20;;
25015;SDS011;13029;46.286;7.488;2023-02-28T16:04:54;17.13;;;11.27;;
25015;SDS011;13029;46.286;7.488;2023-02-28T16:07:25;16.65;;;11.02;;
25015;SDS011;13029;46.286;7.488;2023-02-28T16:09:51;12.70;;;10.27;;
25015;SDS011;13029;46.286;7.488;2023-02-28T16:12:16;14.05;;;10.52;;
25015;SDS011;13029;46.286;7.488;2023-02-28T16:14:41;17.60;;;11.00;;
25015;SDS011;13029;46.286;7.488;2023-02-28T16:17:10;19.88;;;10.93;;
25015;SDS011;13029;46.286;7.488;2023-02-28T16:19:42;14.50;;;10.65;;
25015;SDS011;13029;46.286;7.488;2023-02-28T16:22:07;16.90;;;10.73;;
25015;SDS011;13029;46.286;7.488;2023-02-28T16:24:34;16.27;;;11.57;;
25015;SDS011;13029;46.286;7.488;2023-02-28T16:26:59;14.90;;;11.30;;
25015;SDS011;13029;46.286;7.488;2023-02-28T16:29:26;17.00;;;11.75;;
25015;SDS011;13029;46.286;7.488;2023-02-28T16:31:54;16.70;;;11.10;;
25015;SDS011;13029;46.286;7.488;2023-02-28T16:34:19;13.45;;;10.48;;
25015;SDS011;13029;46.286;7.488;2023-02-28T16:36:46;15.80;;;11.13;;
25015;SDS011;13029;46.286;7.488;2023-02-28T16:39:12;15.10;;;10.70;;
25015;SDS011;13029;46.286;7.488;2023-02-28T16:41:37;14.73;;;11.52;;
25015;SDS011;13029;46.286;7.488;2023-02-28T16:44:10;19.40;;;11.48;;
25015;SDS011;13029;46.286;7.488;2023-02-28T16:46:51;14.68;;;11.50;;
25015;SDS011;13029;46.286;7.488;2023-02-28T16:49:17;15.10;;;11.43;;
25015;SDS011;13029;46.286;7.488;2023-02-28T16:51:42;15.90;;;10.52;;
25015;SDS011;13029;46.286;7.488;2023-02-28T16:54:07;13.45;;;10.05;;
25015;SDS011;13029;46.286;7.488;2023-02-28T16:56:32;23.15;;;10.23;;